createdAt,value
2018-12-13T00:02:00.559Z,95223.00
2018-12-13T00:04:31.522Z,95220.33
2018-12-13T00:07:00.451Z,95221.53
2018-12-13T00:09:29.408Z,95214.07
2018-12-13T00:11:58.330Z,95215.08
2018-12-13T00:14:27.350Z,95204.25
2018-12-13T00:16:56.276Z,95215.22
2018-12-13T00:19:25.223Z,95209.80
2018-12-13T00:21:54.147Z,95207.08
2018-12-13T00:24:23.089Z,95207.81
2018-12-13T00:26:52.117Z,95196.84
2018-12-13T00:29:21.126Z,95190.33
2018-12-13T00:31:50.138Z,95197.88
2018-12-13T00:34:19.036Z,95198.04
2018-12-13T00:36:48.771Z,95191.49
2018-12-13T00:39:17.699Z,95194.08
2018-12-13T00:41:46.657Z,95185.48
2018-12-13T00:44:15.644Z,95191.93
2018-12-13T00:46:44.527Z,95181.80
2018-12-13T00:49:13.589Z,95183.98
2018-12-13T00:51:42.522Z,95182.02
2018-12-13T00:54:11.480Z,95171.78
2018-12-13T00:56:41.082Z,95179.11
2018-12-13T00:59:10.039Z,95176.95
2018-12-13T01:01:38.988Z,95172.12
2018-12-13T01:04:10.217Z,95177.67
2018-12-13T01:06:39.160Z,95177.41
2018-12-13T01:09:08.034Z,95176.66
2018-12-13T01:11:38.941Z,95167.70
2018-12-13T01:14:07.847Z,95176.41
2018-12-13T01:16:36.759Z,95181.09
2018-12-13T01:19:05.673Z,95173.12
2018-12-13T01:21:34.674Z,95171.99
2018-12-13T01:24:03.642Z,95180.27
2018-12-13T01:26:32.586Z,95169.51
2018-12-13T01:29:01.503Z,95172.46
2018-12-13T01:31:30.449Z,95168.01
2018-12-13T01:33:59.384Z,95165.12
2018-12-13T01:36:28.270Z,95168.31
2018-12-13T01:38:57.203Z,95161.47
2018-12-13T01:41:26.150Z,95155.91
2018-12-13T01:43:55.189Z,95154.45
2018-12-13T01:46:24.112Z,95162.50
2018-12-13T01:48:53.091Z,95161.47
2018-12-13T01:51:21.981Z,95147.59
2018-12-13T01:53:50.909Z,95145.63
2018-12-13T01:56:19.801Z,95149.08
2018-12-13T01:58:48.724Z,95142.17
2018-12-13T02:01:18.734Z,95146.00
2018-12-13T02:03:47.718Z,95145.47
2018-12-13T02:06:17.767Z,95136.59
2018-12-13T02:08:46.711Z,95132.34
2018-12-13T02:11:15.581Z,95129.81
2018-12-13T02:13:45.555Z,95127.37
2018-12-13T02:16:14.902Z,95122.59
2018-12-13T02:18:43.838Z,95120.70
2018-12-13T02:21:12.782Z,95124.28
2018-12-13T02:23:41.691Z,95119.56
2018-12-13T02:26:10.587Z,95127.83
2018-12-13T02:28:39.542Z,95122.38
2018-12-13T02:31:08.464Z,95116.23
2018-12-13T02:33:37.342Z,95124.91
2018-12-13T02:36:06.258Z,95112.05
2018-12-13T02:38:35.217Z,95116.27
2018-12-13T02:41:04.226Z,95111.70
2018-12-13T02:43:33.256Z,95109.72
2018-12-13T02:46:02.210Z,95110.77
2018-12-13T02:48:31.114Z,95111.38
2018-12-13T02:51:00.121Z,95102.95
2018-12-13T02:53:29.069Z,95105.48
2018-12-13T02:55:58.022Z,95097.05
2018-12-13T02:58:26.959Z,95102.83
2018-12-13T03:00:55.863Z,95106.88
2018-12-13T03:03:24.762Z,95099.70
2018-12-13T03:05:53.731Z,95097.19
2018-12-13T03:08:22.986Z,95099.51
2018-12-13T03:10:53.048Z,95102.95
2018-12-13T03:13:21.969Z,95102.23
2018-12-13T03:15:50.859Z,95103.27
2018-12-13T03:18:21.748Z,95096.69
2018-12-13T03:20:50.618Z,95094.27
2018-12-13T03:23:19.568Z,95101.09
2018-12-13T03:25:48.553Z,95098.05
2018-12-13T03:28:17.458Z,95094.45
2018-12-13T03:30:46.391Z,95084.97
2018-12-13T03:33:15.315Z,95089.36
2018-12-13T03:35:44.247Z,95084.44
2018-12-13T03:38:13.186Z,95076.41
2018-12-13T03:40:42.296Z,95081.92
2018-12-13T03:43:11.180Z,95074.25
2018-12-13T03:45:40.096Z,95069.61
2018-12-13T03:48:08.968Z,95067.32
2018-12-13T03:50:38.017Z,95069.37
2018-12-13T03:53:06.946Z,95065.33
2018-12-13T03:55:35.879Z,95070.23
2018-12-13T03:58:04.799Z,95065.85
2018-12-13T04:00:33.654Z,95060.48
2018-12-13T04:03:03.672Z,95059.29
2018-12-13T04:05:32.526Z,95050.53
2018-12-13T04:08:01.450Z,95051.89
2018-12-13T04:10:31.459Z,95042.10
2018-12-13T04:13:00.397Z,95050.22
2018-12-13T04:15:29.424Z,95048.35
2018-12-13T04:17:58.365Z,95042.52
2018-12-13T04:20:29.254Z,95042.36
2018-12-13T04:22:58.186Z,95039.16
2018-12-13T04:25:27.180Z,95032.83
2018-12-13T04:27:56.138Z,95037.83
2018-12-13T04:30:25.186Z,95031.37
2018-12-13T04:32:54.110Z,95034.20
2018-12-13T04:35:23.053Z,95034.77
2018-12-13T04:37:51.997Z,95028.66
2018-12-13T04:40:20.905Z,95028.49
2018-12-13T04:42:49.882Z,95031.65
2018-12-13T04:45:18.835Z,95028.41
2018-12-13T04:47:47.779Z,95014.86
2018-12-13T04:50:16.744Z,95019.50
2018-12-13T04:52:45.675Z,95022.22
2018-12-13T04:55:14.641Z,95024.55
2018-12-13T04:57:43.601Z,95019.39
2018-12-13T05:00:12.611Z,95004.24
2018-12-13T05:02:41.562Z,95003.58
2018-12-13T05:05:10.503Z,95002.69
2018-12-13T05:07:41.913Z,95000.96
2018-12-13T05:10:14.797Z,95010.77
2018-12-13T05:12:43.749Z,95004.80
2018-12-13T05:15:12.633Z,94999.20
2018-12-13T05:17:41.615Z,94994.23
2018-12-13T05:20:10.541Z,94987.66
2018-12-13T05:22:39.457Z,94988.45
2018-12-13T05:25:08.598Z,94985.41
2018-12-13T05:27:37.539Z,94987.29
2018-12-13T05:30:06.541Z,94974.33
2018-12-13T05:32:35.466Z,94979.56
2018-12-13T05:35:04.472Z,94978.58
2018-12-13T05:37:33.922Z,94983.38
2018-12-13T05:40:03.838Z,94985.16
2018-12-13T05:42:32.813Z,94973.13
2018-12-13T05:45:01.793Z,94967.59
2018-12-13T05:47:30.785Z,94966.06
2018-12-13T05:49:59.740Z,94974.55
2018-12-13T05:52:28.766Z,94972.16
2018-12-13T05:54:57.693Z,94962.66
2018-12-13T05:57:26.614Z,94974.22
2018-12-13T05:59:55.548Z,94969.97
2018-12-13T06:02:24.511Z,94961.83
2018-12-13T06:04:53.488Z,94954.13
2018-12-13T06:07:22.376Z,94972.30
2018-12-13T06:09:51.317Z,94961.36
2018-12-13T06:12:20.254Z,94958.84
2018-12-13T06:14:49.743Z,94961.67
2018-12-13T06:17:18.650Z,94955.30
2018-12-13T06:19:47.581Z,94959.67
2018-12-13T06:22:16.595Z,94957.44
2018-12-13T06:24:46.029Z,94958.67
2018-12-13T06:27:15.097Z,94961.22
2018-12-13T06:29:48.833Z,94962.16
2018-12-13T06:32:15.011Z,94960.07
2018-12-13T06:34:44.048Z,94959.23
2018-12-13T06:37:13.545Z,94963.97
2018-12-13T06:39:42.477Z,94954.53
2018-12-13T06:42:11.377Z,94965.82
2018-12-13T06:44:40.315Z,94969.92
2018-12-13T06:47:09.318Z,94965.82
2018-12-13T06:49:38.886Z,94965.93
2018-12-13T06:52:07.927Z,94959.83
2018-12-13T06:54:36.859Z,94963.81
2018-12-13T06:57:05.888Z,94974.05
2018-12-13T06:59:34.824Z,94971.30
2018-12-13T07:02:03.799Z,94970.15
2018-12-13T07:04:32.671Z,94974.09
2018-12-13T07:07:01.730Z,94973.25
2018-12-13T07:09:30.693Z,94977.98
2018-12-13T07:11:59.634Z,94976.02
2018-12-13T07:14:28.681Z,94973.38
2018-12-13T07:16:57.667Z,94973.70
2018-12-13T07:19:27.464Z,94971.17
2018-12-13T07:21:56.357Z,94983.11
2018-12-13T07:24:25.282Z,94973.02
2018-12-13T07:26:54.196Z,94979.20
2018-12-13T07:29:23.200Z,94975.06
2018-12-13T07:31:52.078Z,94976.27
2018-12-13T07:34:21.005Z,94967.33
2018-12-13T07:36:50.001Z,94962.92
2018-12-13T07:39:18.936Z,94963.55
2018-12-13T07:41:47.847Z,94965.34
2018-12-13T07:44:16.837Z,94961.55
2018-12-13T07:46:45.769Z,94958.47
2018-12-13T07:49:14.782Z,94960.03
2018-12-13T07:51:43.707Z,94964.94
2018-12-13T07:54:12.594Z,94963.05
2018-12-13T07:56:41.575Z,94953.56
2018-12-13T07:59:10.993Z,94956.08
2018-12-13T08:01:39.900Z,94955.69
2018-12-13T08:04:08.809Z,94952.72
2018-12-13T08:06:37.739Z,94956.81
2018-12-13T08:09:08.563Z,94957.42
2018-12-13T08:11:37.458Z,94951.46
2018-12-13T08:14:06.339Z,94951.66
2018-12-13T08:21:49.089Z,94949.27
2018-12-13T08:24:18.069Z,94945.53
2018-12-13T08:26:48.942Z,94949.66
2018-12-13T08:29:18.163Z,94951.28
2018-12-13T08:31:48.248Z,94949.46
2018-12-13T08:34:17.171Z,94954.89
2018-12-13T08:36:46.035Z,94948.70
2018-12-13T08:39:15.018Z,94951.08
2018-12-13T08:41:44.360Z,94944.68
2018-12-13T08:44:14.386Z,94944.72
2018-12-13T08:46:43.285Z,94934.41
2018-12-13T08:49:12.253Z,94942.88
2018-12-13T08:51:41.202Z,94938.94
2018-12-13T08:54:10.162Z,94937.86
2018-12-13T08:56:39.086Z,94935.05
2018-12-13T08:59:07.966Z,94924.28
2018-12-13T09:01:36.915Z,94926.77
2018-12-13T09:04:05.803Z,94923.11
2018-12-13T09:06:34.719Z,94919.02
2018-12-13T09:09:05.467Z,94921.78
2018-12-13T09:11:35.470Z,94926.92
2018-12-13T09:14:04.833Z,94916.31
2018-12-13T09:16:33.810Z,94917.23
2018-12-13T09:19:02.925Z,94918.81
2018-12-13T09:21:32.040Z,94920.38
2018-12-13T09:24:01.002Z,94919.09
2018-12-13T09:26:29.945Z,94922.92
2018-12-13T09:28:58.902Z,94921.67
2018-12-13T09:31:27.926Z,94920.75
2018-12-13T09:33:56.850Z,94917.91
2018-12-13T09:36:25.811Z,94921.39
2018-12-13T09:38:55.221Z,94915.59
2018-12-13T09:41:24.915Z,94911.00
2018-12-13T09:43:54.058Z,94915.05
2018-12-13T09:46:23.038Z,94908.74
2018-12-13T09:48:51.990Z,94907.89
2018-12-13T09:51:20.954Z,94912.97
2018-12-13T09:53:49.862Z,94911.92
2018-12-13T09:56:18.802Z,94902.42
2018-12-13T09:58:47.818Z,94902.00
2018-12-13T10:01:16.771Z,94897.50
2018-12-13T10:03:45.702Z,94899.45
2018-12-13T10:06:14.577Z,94890.01
2018-12-13T10:08:46.236Z,94891.92
2018-12-13T10:11:14.453Z,94888.34
2018-12-13T10:13:43.435Z,94885.74
2018-12-13T10:16:12.366Z,94880.23
2018-12-13T10:18:41.255Z,94879.70
2018-12-13T10:21:10.300Z,94874.86
2018-12-13T10:23:39.209Z,94871.48
2018-12-13T10:26:08.161Z,94868.73
2018-12-13T10:28:37.674Z,94874.96
2018-12-13T10:31:06.653Z,94871.99
2018-12-13T10:33:35.546Z,94862.68
2018-12-13T10:36:04.489Z,94868.78
2018-12-13T10:38:33.466Z,94868.06
2018-12-13T10:41:02.336Z,94868.56
2018-12-13T10:43:31.346Z,94863.58
2018-12-13T10:46:00.212Z,94856.38
2018-12-13T10:48:29.243Z,94860.14
2018-12-13T10:50:58.238Z,94861.89
2018-12-13T10:53:27.137Z,94858.22
2018-12-13T10:55:56.407Z,94854.66
2018-12-13T10:58:25.272Z,94854.31
2018-12-13T11:00:59.545Z,94847.05
2018-12-13T11:03:33.961Z,94842.11
2018-12-13T11:06:02.847Z,94843.01
2018-12-13T11:08:31.885Z,94842.14
2018-12-13T11:11:00.806Z,94849.62
2018-12-13T11:13:30.323Z,94848.22
2018-12-13T11:15:59.262Z,94849.10
2018-12-13T11:18:28.159Z,94837.84
2018-12-13T11:20:57.160Z,94844.02
2018-12-13T11:23:26.104Z,94837.45
2018-12-13T11:25:55.326Z,94829.91
2018-12-13T11:28:35.756Z,94831.80
2018-12-13T11:31:04.740Z,94827.96
2018-12-13T11:33:33.610Z,94832.44
2018-12-13T11:36:02.550Z,94838.03
2018-12-13T11:38:31.534Z,94832.87
2018-12-13T11:41:00.521Z,94830.49
2018-12-13T11:43:29.459Z,94826.06
2018-12-13T11:45:59.129Z,94829.42
2018-12-13T11:48:28.145Z,94829.70
2018-12-13T11:50:57.106Z,94831.24
2018-12-13T11:53:25.999Z,94826.20
2018-12-13T11:55:54.958Z,94825.19
2018-12-13T11:58:23.888Z,94829.66
2018-12-13T12:00:52.839Z,94821.80
2018-12-13T12:03:21.819Z,94823.34
2018-12-13T12:05:50.788Z,94829.51
2018-12-13T12:08:20.765Z,94823.39
2018-12-13T12:10:49.730Z,94825.07
2018-12-13T12:13:18.676Z,94831.42
2018-12-13T12:15:47.554Z,94823.09
2018-12-13T12:18:16.744Z,94819.58
2018-12-13T12:20:45.786Z,94817.57
2018-12-13T12:23:14.765Z,94817.82
2018-12-13T12:25:43.680Z,94811.62
2018-12-13T12:28:12.646Z,94812.55
2018-12-13T12:30:41.570Z,94816.70
2018-12-13T12:33:10.543Z,94814.34
2018-12-13T12:35:39.423Z,94819.97
2018-12-13T12:38:08.369Z,94819.61
2018-12-13T12:40:37.285Z,94821.91
2018-12-13T12:43:06.177Z,94821.11
2018-12-13T12:45:35.199Z,94820.08
2018-12-13T12:48:04.106Z,94814.38
2018-12-13T12:50:34.310Z,94816.70
2018-12-13T12:53:03.251Z,94811.61
2018-12-13T12:55:32.211Z,94810.36
2018-12-13T12:58:01.133Z,94817.56
2018-12-13T13:00:30.161Z,94816.72
2018-12-13T13:02:59.457Z,94811.80
2018-12-13T13:05:28.422Z,94815.52
2018-12-13T13:07:57.891Z,94813.28
2018-12-13T13:10:26.954Z,94813.91
2018-12-13T13:12:55.959Z,94818.06
2018-12-13T13:15:25.008Z,94816.95
2018-12-13T13:17:53.932Z,94818.22
2018-12-13T13:20:22.896Z,94815.92
2018-12-13T13:22:51.903Z,94820.22
2018-12-13T13:25:20.838Z,94820.78
2018-12-13T13:27:50.660Z,94821.91
2018-12-13T13:30:19.823Z,94822.05
2018-12-13T13:32:48.789Z,94818.20
2018-12-13T13:35:17.749Z,94823.69
2018-12-13T13:37:46.658Z,94811.77
2018-12-13T13:40:15.541Z,94820.32
2018-12-13T13:42:44.598Z,94828.81
2018-12-13T13:45:13.621Z,94840.67
2018-12-13T13:47:42.554Z,94829.47
2018-12-13T13:50:11.520Z,94825.87
2018-12-13T13:52:40.667Z,94833.69
2018-12-13T13:55:09.610Z,94832.55
2018-12-13T13:57:38.581Z,94831.63
2018-12-13T14:00:09.458Z,94831.42
2018-12-13T14:02:38.390Z,94827.89
2018-12-13T14:05:07.368Z,94833.59
2018-12-13T14:07:36.239Z,94827.83
2018-12-13T14:10:05.747Z,94822.88
2018-12-13T14:12:34.707Z,94824.95
2018-12-13T14:15:03.678Z,94826.94
2018-12-13T14:17:32.599Z,94825.53
2018-12-13T14:20:01.520Z,94833.41
2018-12-13T14:22:30.530Z,94824.80
2018-12-13T14:24:59.527Z,94834.34
2018-12-13T14:27:28.541Z,94833.76
2018-12-13T14:29:57.511Z,94835.23
2018-12-13T14:32:26.435Z,94828.13
2018-12-13T14:34:57.560Z,94828.55
2018-12-13T14:37:26.314Z,94830.58
2018-12-13T14:39:55.262Z,94834.41
2018-12-13T14:42:26.164Z,94836.38
2018-12-13T14:44:55.081Z,94833.06
2018-12-13T14:47:24.061Z,94838.39
2018-12-13T14:49:53.050Z,94842.00
2018-12-13T14:52:22.088Z,94839.63
2018-12-13T14:54:51.104Z,94847.03
2018-12-13T14:57:20.154Z,94848.01
2018-12-13T14:59:50.146Z,94841.20
2018-12-13T15:02:19.093Z,94846.23
2018-12-13T15:04:50.055Z,94845.21
2018-12-13T15:07:18.976Z,94849.80
2018-12-13T15:09:50.898Z,94849.27
2018-12-13T15:12:18.879Z,94849.89
2018-12-13T15:14:47.844Z,94846.77
2018-12-13T15:17:16.767Z,94846.92
2018-12-13T15:19:45.699Z,94846.91
2018-12-13T15:22:15.666Z,94846.56
2018-12-13T15:24:44.700Z,94839.41
2018-12-13T15:27:13.586Z,94840.06
2018-12-13T15:29:42.543Z,94835.43
2018-12-13T15:32:11.486Z,94840.66
2018-12-13T15:34:40.398Z,94841.92
2018-12-13T15:37:09.339Z,94843.66
2018-12-13T15:39:38.269Z,94846.03
2018-12-13T15:42:07.159Z,94845.11
2018-12-13T15:44:36.097Z,94844.83
2018-12-13T15:47:05.019Z,94849.22
2018-12-13T15:49:34.233Z,94859.08
2018-12-13T15:52:03.252Z,94860.47
2018-12-13T15:54:32.128Z,94861.60
2018-12-13T15:57:01.054Z,94856.59
2018-12-13T15:59:29.971Z,94860.35
2018-12-13T16:01:58.935Z,94870.36
2018-12-13T16:04:27.861Z,94860.36
2018-12-13T16:06:56.859Z,94862.44
2018-12-13T16:09:25.793Z,94867.45
2018-12-13T16:11:54.842Z,94861.41
2018-12-13T16:14:23.766Z,94862.88
2018-12-13T16:16:52.729Z,94866.45
2018-12-13T16:19:21.655Z,94863.14
2018-12-13T16:21:50.525Z,94867.33
2018-12-13T16:24:19.548Z,94864.30
2018-12-13T16:26:48.533Z,94868.77
2018-12-13T16:29:18.434Z,94866.26
2018-12-13T16:31:47.403Z,94874.67
2018-12-13T16:34:16.361Z,94865.99
2018-12-13T16:36:45.289Z,94869.17
2018-12-13T16:39:14.171Z,94870.18
2018-12-13T16:41:43.131Z,94870.32
2018-12-13T16:44:12.065Z,94868.38
2018-12-13T16:46:41.007Z,94871.69
2018-12-13T16:49:10.030Z,94871.16
2018-12-13T16:51:39.072Z,94869.25
2018-12-13T16:54:08.136Z,94869.92
2018-12-13T16:56:37.195Z,94866.41
2018-12-13T16:59:06.229Z,94870.95
2018-12-13T17:01:35.130Z,94870.23
2018-12-13T17:04:04.052Z,94868.84
2018-12-13T17:06:32.981Z,94872.45
2018-12-13T17:11:38.239Z,94869.11
2018-12-13T17:14:07.195Z,94874.10
2018-12-13T17:16:36.216Z,94878.02
2018-12-13T17:19:05.166Z,94884.58
2018-12-13T17:21:34.124Z,94875.34
2018-12-13T17:24:03.172Z,94880.50
2018-12-13T17:26:32.156Z,94881.58
2018-12-13T17:29:01.189Z,94875.02
2018-12-13T17:31:30.185Z,94879.11
2018-12-13T17:33:59.063Z,94872.63
2018-12-13T17:36:28.007Z,94885.74
2018-12-13T17:38:56.950Z,94894.11
2018-12-13T17:41:26.200Z,94889.06
2018-12-13T17:43:55.082Z,94896.25
2018-12-13T17:46:24.138Z,94884.31
2018-12-13T17:48:53.023Z,94888.70
2018-12-13T17:51:21.968Z,94885.39
2018-12-13T17:53:51.033Z,94885.83
2018-12-13T17:56:20.545Z,94886.87
2018-12-13T17:58:49.503Z,94884.19
2018-12-13T18:01:18.489Z,94881.50
2018-12-13T18:03:47.415Z,94878.20
2018-12-13T18:06:16.374Z,94885.16
2018-12-13T18:08:45.302Z,94878.91
2018-12-13T18:11:14.206Z,94883.69
2018-12-13T18:13:43.174Z,94887.67
2018-12-13T18:16:12.051Z,94881.72
2018-12-13T18:18:40.938Z,94889.14
2018-12-13T18:21:09.959Z,94889.31
2018-12-13T18:23:38.916Z,94896.27
2018-12-13T18:26:07.840Z,94895.63
2018-12-13T18:28:36.802Z,94891.91
2018-12-13T18:31:05.754Z,94896.05
2018-12-13T18:33:34.722Z,94895.59
2018-12-13T18:36:03.634Z,94899.70
2018-12-13T18:38:32.675Z,94898.19
2018-12-13T18:41:01.630Z,94898.78
2018-12-13T18:43:30.560Z,94899.45
2018-12-13T18:45:59.548Z,94897.77
2018-12-13T18:48:28.485Z,94897.02
2018-12-13T18:50:57.470Z,94899.37
2018-12-13T18:53:26.482Z,94894.75
2018-12-13T18:55:55.422Z,94898.27
2018-12-13T18:58:25.462Z,94896.05
2018-12-13T19:00:55.446Z,94897.73
2018-12-13T19:03:24.481Z,94898.15
2018-12-13T19:05:53.448Z,94896.26
2018-12-13T19:08:22.650Z,94901.16
2018-12-13T19:10:51.639Z,94906.07
2018-12-13T19:13:22.199Z,94903.14
2018-12-13T19:15:51.193Z,94903.00
2018-12-13T19:18:20.187Z,94904.94
2018-12-13T19:20:50.165Z,94906.83
2018-12-13T19:23:19.054Z,94907.08
2018-12-13T19:25:49.061Z,94894.25
2018-12-13T19:28:17.964Z,94896.81
2018-12-13T19:30:46.889Z,94900.91
2018-12-13T19:33:15.790Z,94898.91
2018-12-13T19:35:44.751Z,94901.84
2018-12-13T19:38:13.713Z,94911.27
2018-12-13T19:40:48.175Z,94911.60
2018-12-13T19:43:13.541Z,94902.59
2018-12-13T19:45:42.470Z,94913.64
2018-12-13T19:48:11.574Z,94910.14
2018-12-13T19:50:41.146Z,94915.80
2018-12-13T19:53:10.560Z,94913.23
2018-12-13T19:55:39.455Z,94909.80
2018-12-13T19:58:08.381Z,94917.89
2018-12-13T20:00:37.321Z,94913.98
2018-12-13T20:03:06.383Z,94913.27
2018-12-13T20:05:35.297Z,94922.70
2018-12-13T20:08:04.282Z,94923.78
2018-12-13T20:10:33.212Z,94922.61
2018-12-13T20:13:02.095Z,94916.50
2018-12-13T20:15:31.080Z,94919.63
2018-12-13T20:18:00.863Z,94924.17
2018-12-13T20:20:29.834Z,94915.63
2018-12-13T20:22:58.849Z,94922.55
2018-12-13T20:25:27.764Z,94920.53
2018-12-13T20:27:56.785Z,94927.59
2018-12-13T20:30:26.765Z,94925.20
2018-12-13T20:32:55.668Z,94929.20
2018-12-13T20:35:24.630Z,94930.08
2018-12-13T20:37:53.555Z,94925.67
2018-12-13T20:40:22.505Z,94925.67
2018-12-13T20:42:51.471Z,94915.36
2018-12-13T20:45:20.390Z,94911.72
2018-12-13T20:47:49.304Z,94918.60
2018-12-13T20:50:18.494Z,94916.82
2018-12-13T20:52:47.480Z,94922.64
2018-12-13T20:55:16.451Z,94916.78
2018-12-13T20:57:45.370Z,94918.14
2018-12-13T21:00:14.402Z,94917.50
2018-12-13T21:02:43.358Z,94921.24
2018-12-13T21:05:12.442Z,94914.53
2018-12-13T21:07:41.437Z,94908.86
2018-12-13T21:10:11.062Z,94907.90
2018-12-13T21:12:39.926Z,94910.00
2018-12-13T21:15:09.318Z,94911.21
2018-12-13T21:17:38.373Z,94918.88
2018-12-13T21:20:07.368Z,94919.42
2018-12-13T21:22:36.388Z,94930.98
2018-12-13T21:25:05.634Z,94925.07
2018-12-13T21:27:34.560Z,94922.28
2018-12-13T21:30:03.503Z,94926.66
2018-12-13T21:32:32.566Z,94926.98
2018-12-13T21:35:01.485Z,94926.30
2018-12-13T21:37:30.530Z,94925.02
2018-12-13T21:39:59.410Z,94920.59
2018-12-13T21:42:28.428Z,94922.15
2018-12-13T21:44:57.558Z,94920.09
2018-12-13T21:47:26.505Z,94922.56
2018-12-13T21:49:55.471Z,94923.44
2018-12-13T21:52:24.537Z,94929.84
2018-12-13T21:54:53.610Z,94927.88
2018-12-13T21:57:23.462Z,94927.02
2018-12-13T21:59:52.451Z,94926.00
2018-12-13T22:02:21.443Z,94927.42
2018-12-13T22:04:50.437Z,94926.30
2018-12-13T22:07:20.451Z,94920.72
2018-12-13T22:09:49.393Z,94927.82
2018-12-13T22:12:18.286Z,94927.14
2018-12-13T22:14:47.266Z,94925.19
2018-12-13T22:17:16.208Z,94923.59
2018-12-13T22:19:45.243Z,94931.95
2018-12-13T22:22:17.397Z,94930.42
2018-12-13T22:24:46.422Z,94935.13
2018-12-13T22:27:15.386Z,94937.75
2018-12-13T22:29:44.354Z,94939.02
2018-12-13T22:32:13.468Z,94935.77
2018-12-13T22:34:42.756Z,94934.25
2018-12-13T22:37:12.203Z,94947.19
2018-12-13T22:39:41.445Z,94944.53
2018-12-13T22:42:10.489Z,94937.17
2018-12-13T22:44:39.451Z,94942.39
2018-12-13T22:47:09.482Z,94939.21
2018-12-13T22:49:39.176Z,94941.19
2018-12-13T22:52:08.352Z,94942.00
2018-12-13T22:54:37.363Z,94939.81
2018-12-13T22:57:06.390Z,94943.81
2018-12-13T22:59:35.417Z,94942.80
2018-12-13T23:02:04.321Z,94936.72
2018-12-13T23:04:33.358Z,94934.78
2018-12-13T23:07:02.337Z,94930.74
2018-12-13T23:09:31.318Z,94932.69
2018-12-13T23:12:00.554Z,94935.11
2018-12-13T23:14:31.523Z,94938.42
2018-12-13T23:17:00.733Z,94933.99
2018-12-13T23:19:29.771Z,94933.99
2018-12-13T23:21:59.698Z,94937.77
2018-12-13T23:24:28.840Z,94926.68
2018-12-13T23:26:57.935Z,94937.17
2018-12-13T23:29:26.950Z,94935.92
2018-12-13T23:31:55.958Z,94939.55
2018-12-13T23:34:25.619Z,94943.01
2018-12-13T23:36:55.013Z,94945.40
2018-12-13T23:39:24.132Z,94941.07
2018-12-13T23:41:53.210Z,94939.74
2018-12-13T23:44:23.220Z,94938.05
2018-12-13T23:46:52.262Z,94939.37
2018-12-13T23:49:22.286Z,94939.76
2018-12-13T23:54:27.446Z,94954.80
2018-12-13T23:56:57.449Z,94952.28
2018-12-13T23:59:26.453Z,94950.07
